SondeTracker

Meteorological Radiosondes Database

Operations

Sounding was ended - last measurement: 2022-12-06 18:59:17z

MAP
About Radiosonde

Number: T2710156

Launch Site:

Type: RS41

AUX: NO

Frequency: 400.501 MHz

Max Speed: 222 km/h at 12554 m

Average Speed: 106.79 km/h

Max Altitude: 27634 m

Average Ascent Speed: 5.23 m/s

Average Descent Speed: 39.55 m/s

Status: UNKNOWN

Status Changes
Launch Site Type AUX Frequency Status Finder Landing Point Description Changes made by
APRS Statistics

Received Frames: 99

First Frame [UTC]: 2022-12-06 18:04:27z

Last Frame [UTC]: 2022-12-06 18:59:17z

Receivers: KD0ZJV-10

Flight Time: 00:54:50 h

Distance From First Measurement: 95.17 km

Nearest City: Bartlesville [OK] (US) [40.82 km]

Nearest Hunter: [0.00 km]

Ground Altitude: 236 m

Distance from QTH: 0.00 km

APRS Data
Receiver Number Date/Time [UTC] φ λ Course [°] Speed [km/h] Altitude [m] Description
KD0ZJV-10T27101562022-12-06 18:59:1736.9141-95.54447721911654Clb=-27.2m/s t=-56.7C h=37.0% p=211.9hPa 400.501 MHz Type=RS41-SGP Radiosonde
KD0ZJV-10T27101562022-12-06 18:58:4636.9111-95.5688321912512Clb=-26.9m/s t=-62.7C h=13.6% p=184.9hPa 400.501 MHz Type=RS41-SGP Radiosonde
KD0ZJV-10T27101562022-12-06 18:57:1336.9023-95.61657917214887Clb=-31.4m/s t=-65.7C h=4.3% p=125.8hPa 400.501 MHz Type=RS41-SGP Radiosonde
KD0ZJV-10T27101562022-12-06 18:56:4236.899-95.63417713116069Clb=-34.0m/s t=-68.5C h=4.4% p=103.7hPa 400.501 MHz Type=RS41-SGP Radiosonde
KD0ZJV-10T27101562022-12-06 18:54:3736.8935-95.6733917221714Clb=-51.7m/s t=-63.6C h=2.1% p=41.1hPa 400.501 MHz Type=RS41-SGP Radiosonde
KD0ZJV-10T27101562022-12-06 18:54:0636.8936-95.6759887022337Clb=-53.6m/s t=-63.9C h=2.3% p=37.2hPa 400.501 MHz Type=RS41-SGP Radiosonde
KD0ZJV-10T27101562022-12-06 18:53:3536.8935-95.6815855424083Clb=-61.2m/s t=-57.2C h=1.4% p=28.2hPa 400.501 MHz Type=RS41-SGP Radiosonde
KD0ZJV-10T27101562022-12-06 18:53:0436.894-95.6869975226071Clb=-67.5m/s t=-53.9C h=1.2% p=20.7hPa 400.501 MHz Type=RS41-SGP Radiosonde
KD0ZJV-10T27101562022-12-06 18:52:3336.8928-95.6929668027634Clb=4.9m/s t=-52.4C h=1.0% p=15.8hPa 400.501 MHz Type=RS41-SGP Radiosonde
KD0ZJV-10T27101562022-12-06 18:52:0236.8907-95.6984665427449Clb=7.4m/s t=-52.8C h=1.0% p=16.3hPa 400.501 MHz Type=RS41-SGP Radiosonde
KD0ZJV-10T27101562022-12-06 18:51:3136.889-95.7037694327257Clb=5.5m/s t=-53.0C h=1.0% p=16.8hPa 400.501 MHz Type=RS41-SGP Radiosonde
KD0ZJV-10T27101562022-12-06 18:51:0036.8879-95.7086853927050Clb=5.1m/s t=-53.9C h=1.0% p=17.3hPa 400.501 MHz Type=RS41-SGP Radiosonde
KD0ZJV-10T27101562022-12-06 18:50:2936.8886-95.71321105426861Clb=5.4m/s t=-53.4C h=1.0% p=17.8hPa 400.501 MHz Type=RS41-SGP Radiosonde
KD0ZJV-10T27101562022-12-06 18:48:2536.893-95.73871195726069Clb=5.3m/s t=-54.4C h=1.1% p=20.2hPa 400.501 MHz Type=RS41-SGP Radiosonde
KD0ZJV-10T27101562022-12-06 18:47:5436.8944-95.74261086125929Clb=5.3m/s t=-54.7C h=1.2% p=20.6hPa 400.501 MHz Type=RS41-SGP Radiosonde
KD0ZJV-10T27101562022-12-06 18:47:2336.8956-95.7471136725780Clb=7.1m/s t=-53.7C h=1.3% p=21.1hPa 400.501 MHz Type=RS41-SGP Radiosonde
KD0ZJV-10T27101562022-12-06 18:46:5236.897-95.75331066925596Clb=6.1m/s t=-53.7C h=1.1% p=21.8hPa 400.501 MHz Type=RS41-SGP Radiosonde
KD0ZJV-10T27101562022-12-06 18:46:2136.8978-95.7596925425437Clb=4.3m/s t=-53.6C h=1.1% p=22.3hPa 400.501 MHz Type=RS41-SGP Radiosonde
KD0ZJV-10T27101562022-12-06 18:45:5036.8979-95.7649965425299Clb=5.4m/s t=-57.1C h=1.1% p=22.8hPa 400.501 MHz Type=RS41-SGP Radiosonde
KD0ZJV-10T27101562022-12-06 18:45:1936.8979-95.7693885725157Clb=6.0m/s t=-61.4C h=1.4% p=23.3hPa 400.501 MHz Type=RS41-SGP Radiosonde
KD0ZJV-10T27101562022-12-06 18:44:4736.8978-95.7746834625003Clb=5.3m/s t=-60.7C h=1.5% p=23.9hPa 400.501 MHz Type=RS41-SGP Radiosonde
KD0ZJV-10T27101562022-12-06 18:44:1636.8977-95.7806855624782Clb=5.9m/s t=-60.3C h=1.3% p=24.7hPa 400.501 MHz Type=RS41-SGP Radiosonde
KD0ZJV-10T27101562022-12-06 18:43:4536.8973-95.7847855624640Clb=6.2m/s t=-59.8C h=1.4% p=25.3hPa 400.501 MHz Type=RS41-SGP Radiosonde
KD0ZJV-10T27101562022-12-06 18:43:1436.8963-95.7908795924433Clb=8.1m/s t=-59.5C h=1.4% p=26.1hPa 400.501 MHz Type=RS41-SGP Radiosonde
KD0ZJV-10T27101562022-12-06 18:42:4336.896-95.7965884424223Clb=7.4m/s t=-57.9C h=1.2% p=27.0hPa 400.501 MHz Type=RS41-SGP Radiosonde
KD0ZJV-10T27101562022-12-06 18:42:1236.896-95.8012933024001Clb=6.8m/s t=-57.3C h=1.3% p=28.0hPa 400.501 MHz Type=RS41-SGP Radiosonde
KD0ZJV-10T27101562022-12-06 18:41:4136.8965-95.8042933123835Clb=5.2m/s t=-57.1C h=1.2% p=28.7hPa 400.501 MHz Type=RS41-SGP Radiosonde
KD0ZJV-10T27101562022-12-06 18:41:1036.8976-95.8086976123647Clb=5.3m/s t=-58.3C h=1.4% p=29.6hPa 400.501 MHz Type=RS41-SGP Radiosonde
KD0ZJV-10T27101562022-12-06 18:40:3936.8982-95.81511017823463Clb=4.9m/s t=-59.9C h=1.4% p=30.5hPa 400.501 MHz Type=RS41-SGP Radiosonde
KD0ZJV-10T27101562022-12-06 18:40:0836.8986-95.8219916723309Clb=4.7m/s t=-60.2C h=1.4% p=31.3hPa 400.501 MHz Type=RS41-SGP Radiosonde
KD0ZJV-10T27101562022-12-06 18:39:3736.8985-95.8282846323147Clb=3.9m/s t=-60.4C h=1.5% p=32.1hPa 400.501 MHz Type=RS41-SGP Radiosonde
KD0ZJV-10T27101562022-12-06 18:39:0636.8986-95.83481016522995Clb=6.0m/s t=-60.8C h=1.5% p=32.9hPa 400.501 MHz Type=RS41-SGP Radiosonde
KD0ZJV-10T27101562022-12-06 18:38:3536.8998-95.84171027622842Clb=6.6m/s t=-60.3C h=1.5% p=33.7hPa 400.501 MHz Type=RS41-SGP Radiosonde
KD0ZJV-10T27101562022-12-06 18:38:0436.9002-95.8495828022675Clb=5.2m/s t=-62.4C h=1.6% p=34.6hPa 400.501 MHz Type=RS41-SGP Radiosonde
KD0ZJV-10T27101562022-12-06 18:37:3336.8989-95.8567836322509Clb=6.4m/s t=-64.5C h=1.9% p=35.6hPa 400.501 MHz Type=RS41-SGP Radiosonde
KD0ZJV-10T27101562022-12-06 18:37:0236.8987-95.8628895722331Clb=6.7m/s t=-64.4C h=1.8% p=36.7hPa 400.501 MHz Type=RS41-SGP Radiosonde
KD0ZJV-10T27101562022-12-06 18:36:3136.8986-95.8686806922153Clb=5.4m/s t=-64.0C h=1.7% p=37.7hPa 400.501 MHz Type=RS41-SGP Radiosonde
KD0ZJV-10T27101562022-12-06 18:35:5936.8989-95.8753898121975Clb=5.2m/s t=-63.5C h=1.8% p=38.8hPa 400.501 MHz Type=RS41-SGP Radiosonde
KD0ZJV-10T27101562022-12-06 18:35:2836.8986-95.8828867421797Clb=5.1m/s t=-63.3C h=1.8% p=40.0hPa 400.501 MHz Type=RS41-SGP Radiosonde
KD0ZJV-10T27101562022-12-06 18:34:5736.8981-95.8898877021633Clb=4.4m/s t=-63.5C h=1.9% p=41.0hPa 400.501 MHz Type=RS41-SGP Radiosonde
KD0ZJV-10T27101562022-12-06 18:34:2636.8982-95.8971898121468Clb=4.3m/s t=-63.1C h=1.8% p=42.2hPa 400.501 MHz Type=RS41-SGP Radiosonde
KD0ZJV-10T27101562022-12-06 18:33:5536.8982-95.9046857621302Clb=6.2m/s t=-62.8C h=1.9% p=43.3hPa 400.501 MHz Type=RS41-SGP Radiosonde
KD0ZJV-10T27101562022-12-06 18:33:2436.8981-95.9124947021131Clb=4.4m/s t=-64.0C h=2.0% p=44.6hPa 400.501 MHz Type=RS41-SGP Radiosonde
KD0ZJV-10T27101562022-12-06 18:32:5336.8981-95.9194928020979Clb=6.1m/s t=-66.0C h=2.3% p=45.7hPa 400.501 MHz Type=RS41-SGP Radiosonde
KD0ZJV-10T27101562022-12-06 18:32:2236.8972-95.9269726920820Clb=5.7m/s t=-66.0C h=2.3% p=46.9hPa 400.501 MHz Type=RS41-SGP Radiosonde
KD0ZJV-10T27101562022-12-06 18:31:5136.8947-95.9341567220650Clb=4.9m/s t=-65.4C h=2.5% p=48.3hPa 400.501 MHz Type=RS41-SGP Radiosonde
KD0ZJV-10T27101562022-12-06 18:31:2036.8918-95.9399516520483Clb=6.8m/s t=-64.8C h=2.3% p=49.6hPa 400.501 MHz Type=RS41-SGP Radiosonde
KD0ZJV-10T27101562022-12-06 18:30:4936.889-95.9444364420298Clb=5.1m/s t=-65.4C h=2.5% p=51.1hPa 400.501 MHz Type=RS41-SGP Radiosonde
KD0ZJV-10T27101562022-12-06 18:30:1836.8868-95.9473484620149Clb=4.3m/s t=-66.4C h=2.6% p=52.4hPa 400.501 MHz Type=RS41-SGP Radiosonde
KD0ZJV-10T27101562022-12-06 18:29:4736.8852-95.9518645719986Clb=3.7m/s t=-66.8C h=2.9% p=53.7hPa 400.501 MHz Type=RS41-SGP Radiosonde
KD0ZJV-10T27101562022-12-06 18:29:1636.8842-95.9573806319828Clb=5.9m/s t=-65.7C h=2.8% p=55.2hPa 400.501 MHz Type=RS41-SGP Radiosonde
KD0ZJV-10T27101562022-12-06 18:28:4536.8839-95.9637897019668Clb=4.8m/s t=-65.4C h=2.9% p=56.7hPa 400.501 MHz Type=RS41-SGP Radiosonde
KD0ZJV-10T27101562022-12-06 18:28:1436.8843-95.9697926319524Clb=4.1m/s t=-66.0C h=3.0% p=58.0hPa 400.501 MHz Type=RS41-SGP Radiosonde
KD0ZJV-10T27101562022-12-06 18:27:4236.8853-95.97591106519369Clb=6.1m/s t=-66.2C h=3.4% p=59.6hPa 400.501 MHz Type=RS41-SGP Radiosonde
KD0ZJV-10T27101562022-12-06 18:27:1136.8863-95.9823937619199Clb=5.0m/s t=-65.3C h=3.5% p=61.2hPa 400.501 MHz Type=RS41-SGP Radiosonde
KD0ZJV-10T27101562022-12-06 18:26:4036.8866-95.9903859319023Clb=6.7m/s t=-68.2C h=4.0% p=63.0hPa 400.501 MHz Type=RS41-SGP Radiosonde
KD0ZJV-10T27101562022-12-06 18:26:0936.8857-96.00088011118845Clb=7.1m/s t=-68.2C h=4.3% p=64.9hPa 400.501 MHz Type=RS41-SGP Radiosonde
KD0ZJV-10T27101562022-12-06 18:25:3836.8835-96.01197212218662Clb=4.7m/s t=-69.5C h=4.8% p=66.9hPa 400.501 MHz Type=RS41-SGP Radiosonde
KD0ZJV-10T27101562022-12-06 18:25:0736.8799-96.0235911318483Clb=4.8m/s t=-69.7C h=4.6% p=68.9hPa 400.501 MHz Type=RS41-SGP Radiosonde
KD0ZJV-10T27101562022-12-06 18:24:3636.8761-96.03095710018351Clb=4.0m/s t=-69.1C h=4.7% p=70.5hPa 400.501 MHz Type=RS41-SGP Radiosonde
KD0ZJV-10T27101562022-12-06 18:24:0536.8717-96.0388519118193Clb=5.2m/s t=-67.8C h=4.5% p=72.4hPa 400.501 MHz Type=RS41-SGP Radiosonde
KD0ZJV-10T27101562022-12-06 18:23:3436.8673-96.04644310018023Clb=9.2m/s t=-67.2C h=4.4% p=74.5hPa 400.501 MHz Type=RS41-SGP Radiosonde
KD0ZJV-10T27101562022-12-06 18:23:0336.8656-96.05398610917764Clb=7.3m/s t=-67.6C h=5.1% p=77.7hPa 400.501 MHz Type=RS41-SGP Radiosonde
KD0ZJV-10T27101562022-12-06 18:22:3236.8655-96.06419411917585Clb=4.0m/s t=-68.1C h=5.5% p=80.1hPa 400.501 MHz Type=RS41-SGP Radiosonde
KD0ZJV-10T27101562022-12-06 18:22:0136.8657-96.07549111317439Clb=5.4m/s t=-67.4C h=5.7% p=82.1hPa 400.501 MHz Type=RS41-SGP Radiosonde
KD0ZJV-10T27101562022-12-06 18:21:3036.8655-96.08658711717290Clb=4.3m/s t=-67.4C h=6.1% p=84.1hPa 400.501 MHz Type=RS41-SGP Radiosonde
KD0ZJV-10T27101562022-12-06 18:20:5936.8649-96.09968312417123Clb=6.0m/s t=-70.1C h=6.8% p=86.5hPa 400.501 MHz Type=RS41-SGP Radiosonde
KD0ZJV-10T27101562022-12-06 18:20:2836.8639-96.11058413116994Clb=3.6m/s t=-70.2C h=6.7% p=88.3hPa 400.501 MHz Type=RS41-SGP Radiosonde
KD0ZJV-10T27101562022-12-06 18:19:5636.8629-96.1238213316857Clb=4.7m/s t=-70.1C h=6.5% p=90.4hPa 400.501 MHz Type=RS41-SGP Radiosonde
KD0ZJV-10T27101562022-12-06 18:19:2536.8607-96.13737512816701Clb=4.4m/s t=-69.8C h=6.9% p=92.8hPa 400.501 MHz Type=RS41-SGP Radiosonde
KD0ZJV-10T27101562022-12-06 18:18:5436.859-96.14837913016566Clb=5.7m/s t=-69.9C h=6.6% p=94.9hPa 400.501 MHz Type=RS41-SGP Radiosonde
KD0ZJV-10T27101562022-12-06 18:18:2336.8567-96.16047812216410Clb=5.6m/s t=-69.5C h=6.1% p=97.5hPa 400.501 MHz Type=RS41-SGP Radiosonde
KD0ZJV-10T27101562022-12-06 18:17:5236.8543-96.17247313016247Clb=5.0m/s t=-68.9C h=5.8% p=100.1hPa 400.501 MHz Type=RS41-SGP Radiosonde
KD0ZJV-10T27101562022-12-06 18:17:2136.8522-96.18488013016090Clb=5.0m/s t=-68.5C h=5.7% p=102.8hPa 400.501 MHz Type=RS41-SGP Radiosonde
KD0ZJV-10T27101562022-12-06 18:16:5036.8504-96.1988014415938Clb=4.6m/s t=-67.8C h=5.7% p=105.4hPa 400.501 MHz Type=RS41-SGP Radiosonde
KD0ZJV-10T27101562022-12-06 18:16:1936.8476-96.21177514815794Clb=4.1m/s t=-66.9C h=5.2% p=108.0hPa 400.501 MHz Type=RS41-SGP Radiosonde
KD0ZJV-10T27101562022-12-06 18:15:4836.8438-96.2297515215632Clb=4.7m/s t=-66.5C h=4.6% p=110.9hPa 400.501 MHz Type=RS41-SGP Radiosonde
KD0ZJV-10T27101562022-12-06 18:15:1736.8409-96.24067215715526Clb=3.2m/s t=-67.0C h=4.8% p=112.9hPa 400.501 MHz Type=RS41-SGP Radiosonde
KD0ZJV-10T27101562022-12-06 18:14:4636.8375-96.25527615615401Clb=3.0m/s t=-67.4C h=4.9% p=115.2hPa 400.501 MHz Type=RS41-SGP Radiosonde
KD0ZJV-10T27101562022-12-06 18:14:1536.8351-96.27018016315268Clb=4.0m/s t=-66.4C h=4.8% p=117.8hPa 400.501 MHz Type=RS41-SGP Radiosonde
KD0ZJV-10T27101562022-12-06 18:13:4436.833-96.28647916915122Clb=4.7m/s t=-65.5C h=4.8% p=120.6hPa 400.501 MHz Type=RS41-SGP Radiosonde
KD0ZJV-10T27101562022-12-06 18:13:1336.8306-96.30227717614980Clb=5.0m/s t=-65.0C h=4.8% p=123.5hPa 400.501 MHz Type=RS41-SGP Radiosonde
KD0ZJV-10T27101562022-12-06 18:12:4136.8275-96.31867917814830Clb=4.8m/s t=-66.6C h=5.7% p=126.6hPa 400.501 MHz Type=RS41-SGP Radiosonde
KD0ZJV-10T27101562022-12-06 18:12:1036.8242-96.33547518314683Clb=5.5m/s t=-65.5C h=5.5% p=129.7hPa 400.501 MHz Type=RS41-SGP Radiosonde
KD0ZJV-10T27101562022-12-06 18:11:3936.8208-96.3527417614537Clb=4.3m/s t=-66.3C h=6.4% p=132.9hPa 400.501 MHz Type=RS41-SGP Radiosonde
KD0ZJV-10T27101562022-12-06 18:11:0836.8171-96.36947318314382Clb=4.2m/s t=-65.7C h=6.1% p=136.3hPa 400.501 MHz Type=RS41-SGP Radiosonde
KD0ZJV-10T27101562022-12-06 18:10:3736.8132-96.38637118714236Clb=4.5m/s t=-65.6C h=6.0% p=139.7hPa 400.501 MHz Type=RS41-SGP Radiosonde
KD0ZJV-10T27101562022-12-06 18:10:0636.8083-96.40347218314090Clb=4.6m/s t=-64.7C h=5.8% p=143.0hPa 400.501 MHz Type=RS41-SGP Radiosonde
KD0ZJV-10T27101562022-12-06 18:09:3536.803-96.42297218713927Clb=3.3m/s t=-63.4C h=5.6% p=146.9hPa 400.501 MHz Type=RS41-SGP Radiosonde
KD0ZJV-10T27101562022-12-06 18:09:0436.7996-96.43687018113814Clb=4.1m/s t=-63.6C h=6.4% p=149.6hPa 400.501 MHz Type=RS41-SGP Radiosonde
KD0ZJV-10T27101562022-12-06 18:08:3336.7947-96.45426818113684Clb=4.5m/s t=-63.1C h=7.3% p=152.8hPa 400.501 MHz Type=RS41-SGP Radiosonde
KD0ZJV-10T27101562022-12-06 18:08:0236.7894-96.47086716713548Clb=3.9m/s t=-63.4C h=9.0% p=156.2hPa 400.501 MHz Type=RS41-SGP Radiosonde
KD0ZJV-10T27101562022-12-06 18:07:3136.785-96.48647118113411Clb=5.0m/s t=-62.8C h=10.6% p=159.8hPa 400.501 MHz Type=RS41-SGP Radiosonde
KD0ZJV-10T27101562022-12-06 18:07:0036.7811-96.50357517613270Clb=4.3m/s t=-62.5C h=14.5% p=163.4hPa 400.501 MHz Type=RS41-SGP Radiosonde
KD0ZJV-10T27101562022-12-06 18:06:2936.778-96.51977718113135Clb=2.7m/s t=-63.4C h=21.9% p=167.1hPa 400.501 MHz Type=RS41-SGP Radiosonde
KD0ZJV-10T27101562022-12-06 18:05:5836.775-96.53977820212977Clb=5.6m/s t=-64.4C h=29.4% p=171.4hPa 400.501 MHz Type=RS41-SGP Radiosonde
KD0ZJV-10T27101562022-12-06 18:05:2736.7722-96.55737820912848Clb=4.5m/s t=-273.0C h=-1.0% p=175.1hPa 400.501 MHz Type=RS41-SGP Radiosonde
KD0ZJV-10T27101562022-12-06 18:04:5536.7692-96.5788021312696Clb=4.5m/s t=-273.0C h=-1.0% p=-1.0hPa 400.501 MHz Type=RS41 Radiosonde
KD0ZJV-10T27101562022-12-06 18:04:2736.7666-96.59788122212554Clb=5.1m/s t=-273.0C h=-1.0% p=-1.0hPa 400.501 MHz Type=RS41 Radiosonde